createdAt,value
2022-08-21T00:00:24.661Z,21.98
2022-08-21T00:02:58.245Z,21.00
2022-08-21T00:05:26.312Z,21.95
2022-08-21T00:07:52.860Z,23.23
2022-08-21T00:10:20.192Z,19.42
2022-08-21T00:12:47.608Z,20.33
2022-08-21T00:15:20.968Z,20.98
2022-08-21T00:17:47.707Z,20.60
2022-08-21T00:20:16.764Z,21.98
2022-08-21T00:22:43.676Z,20.45
2022-08-21T00:25:12.280Z,21.83
2022-08-21T00:27:39.339Z,24.90
2022-08-21T00:30:07.767Z,21.48
2022-08-21T00:32:35.004Z,22.13
2022-08-21T00:35:01.558Z,22.88
2022-08-21T00:37:28.253Z,24.48
2022-08-21T00:39:57.501Z,24.98
2022-08-21T00:42:24.208Z,22.60
2022-08-21T00:44:51.553Z,23.35
2022-08-21T00:47:19.691Z,23.05
2022-08-21T00:49:46.417Z,21.77
2022-08-21T00:52:20.493Z,21.65
2022-08-21T00:54:49.540Z,23.17
2022-08-21T00:57:32.671Z,21.55
2022-08-21T01:00:02.172Z,20.95
2022-08-21T01:02:28.912Z,20.30
2022-08-21T01:04:58.308Z,20.23
2022-08-21T01:07:27.800Z,21.35
2022-08-21T01:09:54.557Z,19.58
2022-08-21T01:12:21.137Z,17.80
2022-08-21T01:14:47.803Z,18.65
2022-08-21T01:17:16.519Z,17.45
2022-08-21T01:19:43.432Z,18.52
2022-08-21T01:22:10.832Z,18.67
2022-08-21T01:24:37.515Z,19.15
2022-08-21T01:27:04.480Z,23.38
2022-08-21T01:29:31.584Z,25.70
2022-08-21T01:32:00.107Z,28.42
2022-08-21T01:34:26.858Z,28.00
2022-08-21T01:36:53.448Z,29.88
2022-08-21T01:39:20.593Z,27.58
2022-08-21T01:41:47.273Z,31.08
2022-08-21T01:44:13.915Z,30.75
2022-08-21T01:46:40.670Z,29.52
2022-08-21T01:49:07.452Z,30.23
2022-08-21T01:51:34.185Z,31.52
2022-08-21T01:54:01.123Z,32.78
2022-08-21T01:56:28.907Z,34.22
2022-08-21T01:58:55.808Z,32.05
2022-08-21T02:01:22.460Z,34.42
2022-08-21T02:03:49.157Z,34.28
2022-08-21T02:06:18.691Z,37.25
2022-08-21T02:08:46.543Z,39.17
2022-08-21T02:11:13.601Z,35.38
2022-08-21T02:13:40.660Z,35.40
2022-08-21T02:16:08.927Z,33.22
2022-08-21T02:18:36.030Z,32.83
2022-08-21T02:21:03.120Z,33.38
2022-08-21T02:23:29.732Z,33.33
2022-08-21T02:25:59.539Z,31.98
2022-08-21T02:30:57.379Z,40.47
2022-08-21T02:33:24.741Z,37.80
2022-08-21T02:35:51.542Z,33.67
2022-08-21T02:38:27.238Z,37.38
2022-08-21T02:40:55.281Z,37.72
2022-08-21T02:43:24.427Z,32.50
2022-08-21T02:45:52.872Z,30.27
2022-08-21T02:48:22.324Z,30.58
2022-08-21T02:50:57.241Z,30.13
2022-08-21T02:53:24.699Z,30.40
2022-08-21T02:55:52.984Z,28.65
2022-08-21T02:58:26.963Z,27.15
2022-08-21T03:00:54.253Z,28.95
2022-08-21T03:03:22.022Z,27.88
2022-08-21T03:08:10.444Z,26.48
2022-08-21T03:10:43.227Z,24.80
2022-08-21T03:13:10.932Z,28.60
2022-08-21T03:17:57.384Z,28.08
2022-08-21T03:20:26.348Z,57.38
2022-08-21T03:22:54.322Z,54.58
2022-08-21T03:25:28.330Z,52.92
2022-08-21T03:28:12.871Z,53.08
2022-08-21T03:30:44.840Z,54.92
2022-08-21T03:33:12.985Z,55.10
2022-08-21T03:35:46.710Z,55.00
2022-08-21T03:38:14.028Z,55.88
2022-08-21T03:40:42.457Z,54.15
2022-08-21T03:43:10.460Z,55.25
2022-08-21T03:45:37.539Z,54.42
2022-08-21T03:48:05.709Z,56.35
2022-08-21T03:50:35.269Z,56.58
2022-08-21T03:53:08.792Z,56.60
2022-08-21T03:55:46.690Z,57.83
2022-08-21T03:58:16.272Z,58.50
2022-08-21T04:00:44.885Z,58.78
2022-08-21T04:03:11.443Z,56.85
2022-08-21T04:05:38.488Z,35.05
2022-08-21T04:08:06.695Z,37.92
2022-08-21T04:10:36.556Z,36.67
2022-08-21T04:13:04.630Z,35.60
2022-08-21T04:15:31.219Z,33.40
2022-08-21T04:17:57.909Z,37.15
2022-08-21T04:20:25.240Z,36.72
2022-08-21T04:22:52.958Z,36.83
2022-08-21T04:25:22.260Z,39.65
2022-08-21T04:27:49.165Z,42.40
2022-08-21T04:30:17.545Z,42.90
2022-08-21T04:32:50.024Z,43.45
2022-08-21T04:35:20.483Z,46.55
2022-08-21T04:37:47.551Z,47.17
2022-08-21T04:40:16.888Z,50.10
2022-08-21T04:42:47.347Z,48.67
2022-08-21T04:49:50.554Z,51.00
2022-08-21T04:52:21.197Z,48.97
2022-08-21T04:54:51.039Z,48.75
2022-08-21T04:57:21.137Z,48.03
2022-08-21T04:59:51.628Z,47.55
2022-08-21T05:02:19.093Z,50.03
2022-08-21T05:04:52.240Z,49.85
2022-08-21T05:07:42.821Z,47.10
2022-08-21T05:10:10.323Z,49.88
2022-08-21T05:12:39.463Z,50.33
2022-08-21T05:15:06.400Z,47.22
2022-08-21T05:17:35.687Z,48.13
2022-08-21T05:20:02.858Z,48.63
2022-08-21T05:22:29.393Z,47.10
2022-08-21T05:24:56.074Z,44.88
2022-08-21T05:29:50.716Z,43.10
2022-08-21T05:32:17.431Z,45.72
2022-08-21T05:34:44.023Z,45.58
2022-08-21T05:37:13.452Z,44.55
2022-08-21T05:40:21.167Z,47.28
2022-08-21T05:42:27.135Z,45.88
2022-08-21T05:44:53.706Z,43.38
2022-08-21T05:47:20.572Z,41.67
2022-08-21T05:49:47.109Z,41.67
2022-08-21T05:52:20.293Z,42.00
2022-08-21T05:54:46.903Z,41.28
2022-08-21T05:57:13.644Z,43.20
2022-08-21T05:59:40.611Z,39.22
2022-08-21T06:02:09.016Z,39.53
2022-08-21T06:04:40.063Z,39.20
2022-08-21T06:07:07.788Z,36.60
2022-08-21T06:09:34.579Z,34.60
2022-08-21T06:12:10.000Z,37.75
2022-08-21T06:14:38.821Z,34.40
2022-08-21T06:17:06.655Z,34.70
2022-08-21T06:19:33.907Z,32.40
2022-08-21T06:22:00.576Z,32.45
2022-08-21T06:24:27.625Z,31.77
2022-08-21T06:26:54.469Z,34.15
2022-08-21T06:29:21.859Z,31.17
2022-08-21T06:31:50.341Z,31.17
2022-08-21T06:34:17.336Z,32.22
2022-08-21T06:36:43.877Z,32.15
2022-08-21T06:39:16.666Z,30.55
2022-08-21T06:41:52.116Z,31.15
2022-08-21T06:44:22.189Z,30.27
2022-08-21T06:46:49.208Z,27.63
2022-08-21T06:49:21.453Z,29.23
2022-08-21T06:51:48.480Z,29.50
2022-08-21T06:54:15.244Z,29.25
2022-08-21T06:56:42.019Z,29.77
2022-08-21T06:59:08.571Z,29.23
2022-08-21T07:01:35.240Z,28.73
2022-08-21T07:04:01.843Z,28.98
2022-08-21T07:06:28.615Z,27.83
2022-08-21T07:08:58.857Z,29.27
2022-08-21T07:11:38.479Z,28.17
2022-08-21T07:14:20.039Z,26.65
2022-08-21T07:16:48.059Z,28.75
2022-08-21T07:19:14.757Z,26.10
2022-08-21T07:21:41.566Z,26.80
2022-08-21T07:24:08.311Z,29.27
2022-08-21T07:26:34.855Z,26.60
2022-08-21T07:29:01.661Z,27.90
2022-08-21T07:31:28.909Z,29.02
2022-08-21T07:33:56.000Z,28.15
2022-08-21T07:36:22.923Z,27.67
2022-08-21T07:38:52.558Z,29.38
2022-08-21T07:41:22.822Z,27.23
2022-08-21T07:43:49.508Z,26.65
2022-08-21T07:46:20.557Z,26.58
2022-08-21T07:48:47.780Z,27.65
2022-08-21T07:51:17.221Z,29.20
2022-08-21T07:53:52.120Z,26.67
2022-08-21T07:56:19.484Z,27.15
2022-08-21T07:58:46.257Z,27.65
2022-08-21T08:01:13.286Z,26.85
2022-08-21T08:03:40.173Z,26.92
2022-08-21T08:06:12.279Z,26.88
2022-08-21T08:08:42.764Z,26.55
2022-08-21T08:11:16.209Z,25.83
2022-08-21T08:13:46.679Z,26.65
2022-08-21T08:16:13.727Z,26.77
2022-08-21T08:18:43.225Z,25.63
2022-08-21T08:21:11.498Z,27.75
2022-08-21T08:23:38.756Z,27.25
2022-08-21T08:26:05.789Z,24.45
2022-08-21T08:28:34.104Z,27.45
2022-08-21T08:31:02.063Z,26.65
2022-08-21T08:33:29.105Z,27.33
2022-08-21T08:35:56.281Z,26.95
2022-08-21T08:38:25.046Z,27.63
2022-08-21T08:40:56.309Z,26.17
2022-08-21T08:43:23.430Z,25.55
2022-08-21T08:45:54.367Z,27.13
2022-08-21T08:48:41.932Z,28.48
2022-08-21T08:51:17.605Z,29.35
2022-08-21T08:54:03.795Z,27.02
2022-08-21T08:56:33.325Z,29.55
2022-08-21T08:59:08.311Z,27.90
2022-08-21T09:01:38.747Z,28.50
2022-08-21T09:04:06.497Z,27.30
2022-08-21T09:06:43.184Z,32.28
2022-08-21T09:09:24.606Z,30.38
2022-08-21T09:12:07.124Z,33.17
2022-08-21T09:14:55.275Z,32.45
2022-08-21T09:17:34.504Z,30.05
2022-08-21T09:20:28.565Z,32.17
2022-08-21T09:23:15.424Z,32.45
2022-08-21T09:25:55.208Z,29.23
2022-08-21T09:28:21.835Z,33.95
2022-08-21T09:30:48.837Z,32.15
2022-08-21T09:33:16.950Z,32.30
2022-08-21T09:35:53.118Z,31.90
2022-08-21T09:38:27.495Z,33.83
2022-08-21T09:41:01.064Z,32.45
2022-08-21T09:43:27.824Z,34.95
2022-08-21T09:46:31.695Z,33.15
2022-08-21T09:49:02.297Z,32.08
2022-08-21T09:51:38.251Z,31.08
2022-08-21T09:54:07.791Z,31.27
2022-08-21T09:57:12.651Z,29.90
2022-08-21T09:59:39.752Z,29.85
2022-08-21T10:02:29.088Z,30.35
2022-08-21T10:05:03.965Z,35.80
2022-08-21T10:07:33.346Z,36.20
2022-08-21T10:10:07.439Z,35.60
2022-08-21T10:15:13.345Z,32.28
2022-08-21T10:18:04.369Z,31.35
2022-08-21T10:20:51.492Z,27.87
2022-08-21T10:23:42.300Z,28.30
2022-08-21T10:26:18.869Z,25.90
2022-08-21T10:29:02.779Z,28.60
2022-08-21T10:31:46.273Z,31.77
2022-08-21T10:34:12.854Z,31.02
2022-08-21T10:37:04.184Z,30.23
2022-08-21T10:39:38.158Z,27.10
2022-08-21T10:42:27.925Z,28.02
2022-08-21T10:45:16.640Z,29.02
2022-08-21T10:47:43.177Z,29.05
2022-08-21T10:50:44.420Z,29.05
2022-08-21T10:53:23.129Z,26.80
2022-08-21T10:56:11.613Z,26.85
2022-08-21T10:59:01.708Z,28.75
2022-08-21T11:01:50.967Z,28.08
2022-08-21T11:04:22.861Z,24.00
2022-08-21T11:07:05.479Z,24.40
2022-08-21T11:09:36.149Z,22.05
2022-08-21T11:12:19.071Z,24.60
2022-08-21T11:14:53.837Z,22.80
2022-08-21T11:17:28.567Z,21.92
2022-08-21T11:20:04.830Z,17.90
2022-08-21T11:22:55.044Z,14.25
2022-08-21T11:25:36.948Z,12.98
2022-08-21T11:28:14.233Z,12.20
2022-08-21T11:31:12.668Z,11.50
2022-08-21T11:33:45.425Z,9.35
2022-08-21T11:36:18.127Z,9.85
2022-08-21T11:38:58.124Z,9.07
2022-08-21T11:41:31.094Z,9.13
2022-08-21T11:44:19.309Z,8.88
2022-08-21T11:49:59.120Z,9.32
2022-08-21T11:52:44.537Z,10.88
2022-08-21T11:55:11.077Z,9.23
2022-08-21T12:00:08.984Z,9.13
2022-08-21T12:02:51.832Z,7.82
2022-08-21T12:05:37.218Z,7.30
2022-08-21T12:08:14.040Z,5.50
2022-08-21T12:10:48.024Z,6.15
2022-08-21T12:13:40.726Z,5.82
2022-08-21T12:16:15.689Z,7.20
2022-08-21T12:18:43.730Z,4.43
2022-08-21T12:21:28.561Z,4.65
2022-08-21T12:24:04.901Z,4.65
2022-08-21T12:26:49.347Z,4.32
2022-08-21T12:29:38.553Z,4.18
2022-08-21T12:32:27.053Z,4.15
2022-08-21T12:35:08.061Z,3.55
2022-08-21T12:37:46.810Z,3.88
2022-08-21T12:40:22.739Z,3.83
2022-08-21T12:42:58.734Z,4.30
2022-08-21T12:45:42.916Z,2.83
2022-08-21T12:48:25.198Z,3.67
2022-08-21T12:50:58.265Z,3.72
2022-08-21T12:53:42.647Z,3.72
2022-08-21T12:56:12.993Z,4.10
2022-08-21T12:58:46.195Z,3.50
2022-08-21T13:01:24.598Z,3.50
2022-08-21T13:03:58.855Z,4.18
2022-08-21T13:06:37.905Z,3.58
2022-08-21T13:09:11.196Z,3.78
2022-08-21T13:11:40.943Z,3.40
2022-08-21T13:16:40.730Z,3.63
2022-08-21T13:19:12.424Z,3.45
2022-08-21T13:24:40.697Z,3.28
2022-08-21T13:27:03.444Z,3.90
2022-08-21T13:29:35.439Z,3.45
2022-08-21T13:32:07.933Z,4.30
2022-08-21T13:34:38.134Z,3.42
2022-08-21T13:37:08.691Z,3.95
2022-08-21T13:39:35.594Z,3.20
2022-08-21T13:42:06.097Z,3.60
2022-08-21T13:44:48.153Z,2.80
2022-08-21T13:47:16.865Z,2.95
2022-08-21T13:49:47.572Z,2.83
2022-08-21T13:52:21.318Z,2.70
2022-08-21T13:55:12.603Z,2.72
2022-08-21T13:57:39.264Z,2.40
2022-08-21T14:00:36.166Z,2.53
2022-08-21T14:03:11.836Z,2.90
2022-08-21T14:05:45.605Z,3.15
2022-08-21T14:08:30.279Z,3.08
2022-08-21T14:10:58.495Z,3.72
2022-08-21T14:13:43.549Z,4.28
2022-08-21T14:16:12.517Z,3.60
2022-08-21T14:19:07.236Z,4.28
2022-08-21T14:21:37.915Z,4.13
2022-08-21T14:24:14.749Z,4.72
2022-08-21T14:26:53.942Z,3.75
2022-08-21T14:29:23.652Z,3.72
2022-08-21T14:31:53.286Z,3.95
2022-08-21T14:34:20.183Z,3.70
2022-08-21T14:36:48.068Z,3.70
2022-08-21T14:39:16.455Z,4.35
2022-08-21T14:41:43.841Z,4.20
2022-08-21T14:44:10.547Z,4.15
2022-08-21T14:46:48.721Z,5.55
2022-08-21T14:49:22.502Z,5.72
2022-08-21T14:51:54.706Z,5.82
2022-08-21T14:54:28.040Z,6.03
2022-08-21T14:56:59.741Z,5.95
2022-08-21T14:59:26.778Z,6.13
2022-08-21T15:01:54.133Z,6.45
2022-08-21T15:04:20.853Z,7.72
2022-08-21T15:06:47.464Z,8.55
2022-08-21T15:09:13.992Z,8.52
2022-08-21T15:11:42.574Z,10.23
2022-08-21T15:14:13.556Z,10.77
2022-08-21T15:16:40.161Z,10.20
2022-08-21T15:19:06.719Z,9.90
2022-08-21T15:21:33.355Z,10.07
2022-08-21T15:24:00.119Z,9.82
2022-08-21T15:26:26.789Z,10.43
2022-08-21T15:28:53.484Z,10.27
2022-08-21T15:31:20.092Z,10.27
2022-08-21T15:33:46.763Z,9.98
2022-08-21T15:36:13.368Z,10.77
2022-08-21T15:38:40.008Z,9.80
2022-08-21T15:41:07.327Z,10.43
2022-08-21T15:43:47.065Z,10.00
2022-08-21T15:46:16.100Z,10.90
2022-08-21T15:48:42.943Z,9.75
2022-08-21T15:51:11.627Z,9.60
2022-08-21T15:53:40.862Z,11.05
2022-08-21T15:56:18.736Z,13.05
2022-08-21T15:58:45.365Z,15.07
2022-08-21T16:01:11.978Z,16.83
2022-08-21T16:03:39.679Z,18.75
2022-08-21T16:06:06.471Z,16.38
2022-08-21T16:08:33.101Z,21.52
2022-08-21T16:11:01.228Z,22.23
2022-08-21T16:13:33.361Z,22.65
2022-08-21T16:16:00.138Z,21.70
2022-08-21T16:18:27.469Z,22.77
2022-08-21T16:20:54.268Z,24.20
2022-08-21T16:23:20.776Z,23.60
2022-08-21T16:25:47.972Z,20.77
2022-08-21T16:28:17.296Z,21.85
2022-08-21T16:30:47.468Z,21.25
2022-08-21T16:33:35.151Z,19.15
2022-08-21T16:36:05.004Z,18.40
2022-08-21T16:38:36.769Z,17.42
2022-08-21T16:41:07.776Z,17.20
2022-08-21T16:43:35.172Z,17.77
2022-08-21T16:46:02.696Z,16.23
2022-08-21T16:48:31.899Z,16.48
2022-08-21T16:50:59.184Z,15.20
2022-08-21T16:53:26.441Z,16.48
2022-08-21T16:55:53.742Z,16.15
2022-08-21T16:58:30.486Z,13.02
2022-08-21T17:00:58.887Z,13.98
2022-08-21T17:03:34.936Z,14.02
2022-08-21T17:06:01.995Z,14.38
2022-08-21T17:08:28.671Z,14.43
2022-08-21T17:10:56.006Z,15.25
2022-08-21T17:13:23.060Z,15.18
2022-08-21T17:15:49.813Z,13.80
2022-08-21T17:18:19.479Z,14.65
2022-08-21T17:20:47.619Z,14.73
2022-08-21T17:23:15.325Z,13.60
2022-08-21T17:25:44.993Z,17.60
2022-08-21T17:28:15.597Z,19.73
2022-08-21T17:30:46.072Z,18.35
2022-08-21T17:33:15.116Z,16.50
2022-08-21T17:35:42.364Z,15.80
2022-08-21T17:38:10.441Z,13.98
2022-08-21T17:40:42.508Z,12.43
2022-08-21T17:43:13.232Z,11.30
2022-08-21T17:45:40.341Z,10.07
2022-08-21T17:48:07.538Z,9.30
2022-08-21T17:50:34.794Z,10.30
2022-08-21T17:53:01.541Z,8.68
2022-08-21T17:55:31.226Z,10.30
2022-08-21T17:57:58.611Z,9.15
2022-08-21T18:00:26.300Z,7.07
2022-08-21T18:03:15.846Z,7.53
2022-08-21T18:05:44.782Z,7.38
2022-08-21T18:08:11.553Z,8.32
2022-08-21T18:10:41.231Z,9.27
2022-08-21T18:13:10.568Z,9.93
2022-08-21T18:15:37.234Z,7.00
2022-08-21T18:18:05.881Z,6.60
2022-08-21T18:20:32.646Z,6.25
2022-08-21T18:23:07.749Z,6.55
2022-08-21T18:25:40.351Z,6.60
2022-08-21T18:28:15.461Z,8.25
2022-08-21T18:30:59.502Z,6.60
2022-08-21T18:33:57.827Z,5.03
2022-08-21T18:36:27.965Z,5.00
2022-08-21T18:39:08.685Z,4.55
2022-08-21T18:41:45.014Z,4.28
2022-08-21T18:44:14.750Z,3.40
2022-08-21T18:46:45.220Z,2.97
2022-08-21T18:49:11.840Z,4.00
2022-08-21T18:51:40.077Z,3.67
2022-08-21T18:54:13.044Z,3.38
2022-08-21T18:56:40.940Z,3.33
2022-08-21T18:59:08.337Z,3.30
2022-08-21T19:01:36.258Z,3.45
2022-08-21T19:04:07.640Z,3.42
2022-08-21T19:06:36.495Z,4.30
2022-08-21T19:09:07.271Z,5.00
2022-08-21T19:11:35.228Z,4.10
2022-08-21T19:14:04.989Z,3.47
2022-08-21T19:16:35.647Z,3.40
2022-08-21T19:19:03.775Z,2.67
2022-08-21T19:21:31.840Z,3.83
2022-08-21T19:23:59.133Z,3.88
2022-08-21T19:26:30.176Z,2.88
2022-08-21T19:29:02.014Z,2.53
2022-08-21T19:31:32.476Z,1.90
2022-08-21T19:34:16.810Z,2.05
2022-08-21T19:36:44.260Z,2.60
2022-08-21T19:39:12.015Z,2.15
2022-08-21T19:41:43.558Z,2.25
2022-08-21T19:44:19.454Z,2.17
2022-08-21T19:46:47.799Z,2.08
2022-08-21T19:49:21.403Z,1.67
2022-08-21T19:51:49.418Z,1.92
2022-08-21T19:54:32.408Z,1.67
2022-08-21T19:57:08.705Z,2.28
2022-08-21T19:59:36.867Z,1.88
2022-08-21T20:02:05.015Z,1.73
2022-08-21T20:04:33.114Z,1.65
2022-08-21T20:07:01.026Z,1.83
2022-08-21T20:09:27.813Z,1.35
2022-08-21T20:11:57.520Z,2.05
2022-08-21T20:14:30.497Z,1.40
2022-08-21T20:17:05.980Z,1.80
2022-08-21T20:19:35.702Z,1.70
2022-08-21T20:22:02.608Z,2.85
2022-08-21T20:24:29.937Z,2.38
2022-08-21T20:26:57.255Z,1.85
2022-08-21T20:29:29.268Z,2.00
2022-08-21T20:32:06.026Z,1.90
2022-08-21T20:34:33.205Z,1.70
2022-08-21T20:37:01.225Z,2.55
2022-08-21T20:39:28.680Z,1.90
2022-08-21T20:41:56.079Z,2.70
2022-08-21T20:44:27.503Z,1.70
2022-08-21T20:46:54.444Z,1.95
2022-08-21T20:49:28.109Z,1.58
2022-08-21T20:51:58.306Z,2.33
2022-08-21T20:54:30.852Z,1.60
2022-08-21T21:00:15.536Z,1.85
2022-08-21T21:03:10.629Z,1.67
2022-08-21T21:05:48.413Z,2.00
2022-08-21T21:08:25.337Z,1.20
2022-08-21T21:11:00.504Z,2.08
2022-08-21T21:13:30.526Z,1.80
2022-08-21T21:16:07.504Z,2.28
2022-08-21T21:18:43.317Z,1.90
2022-08-21T21:21:32.885Z,1.50
2022-08-21T21:24:09.544Z,1.48
2022-08-21T21:26:48.896Z,1.55
2022-08-21T21:29:29.835Z,1.10
2022-08-21T21:31:56.951Z,1.17
2022-08-21T21:34:26.669Z,1.52
2022-08-21T21:37:02.934Z,1.48
2022-08-21T21:39:53.304Z,1.48
2022-08-21T21:42:30.169Z,1.45
2022-08-21T21:45:27.672Z,1.85
2022-08-21T21:47:57.771Z,1.45
2022-08-21T21:50:33.579Z,1.63
2022-08-21T21:53:16.464Z,1.30
2022-08-21T21:55:46.029Z,1.60
2022-08-21T22:00:29.997Z,2.03
2022-08-21T22:02:56.971Z,1.85
2022-08-21T22:05:51.375Z,1.60
2022-08-21T22:08:21.867Z,2.35
2022-08-21T22:13:48.400Z,2.83
2022-08-21T22:16:15.308Z,2.90
2022-08-21T22:18:54.694Z,3.28
2022-08-21T22:21:33.401Z,3.60
2022-08-21T22:24:15.251Z,3.97
2022-08-21T22:29:16.684Z,4.85
2022-08-21T22:31:59.755Z,3.95
2022-08-21T22:34:28.716Z,4.80
2022-08-21T22:36:59.497Z,5.07
2022-08-21T22:39:28.361Z,6.47
2022-08-21T22:42:08.806Z,5.40
2022-08-21T22:44:49.175Z,6.20
2022-08-21T22:47:22.422Z,6.57
2022-08-21T22:49:53.967Z,6.78
2022-08-21T22:52:24.904Z,7.88
2022-08-21T22:54:57.609Z,8.70
2022-08-21T22:57:30.679Z,8.93
2022-08-21T23:00:00.649Z,9.77
2022-08-21T23:02:33.492Z,11.65
2022-08-21T23:05:19.014Z,11.27
2022-08-21T23:07:49.742Z,10.68
2022-08-21T23:10:42.007Z,10.77
2022-08-21T23:13:13.807Z,10.48
2022-08-21T23:16:02.843Z,9.55
2022-08-21T23:18:52.930Z,12.32
2022-08-21T23:21:19.536Z,9.93
2022-08-21T23:24:19.150Z,11.68
2022-08-21T23:27:23.436Z,10.75
2022-08-21T23:30:14.791Z,11.82
2022-08-21T23:33:22.825Z,10.73
2022-08-21T23:36:20.428Z,9.18
2022-08-21T23:39:22.086Z,11.13
2022-08-21T23:41:58.882Z,13.63
2022-08-21T23:44:29.054Z,12.50
2022-08-21T23:47:04.557Z,12.02
2022-08-21T23:49:47.066Z,11.70
2022-08-21T23:52:23.605Z,11.82
2022-08-21T23:54:59.312Z,11.25
2022-08-21T23:57:57.404Z,11.38
